Temp: 11.9°C   Baro: 998.1mb
  Wind: 8.1mph   Dir: WSW (258°)
  Rain: 4.6mm (0.0mm/hr)
  Solar: 35W/m2  Hum: 92%

10 day detailed forecast for Bath, United Kingdom

Last update: 28.02.2020 13:19
Next update: 28.02.2020 19:27
Latitude: 51.38° N
Longitude: 2.36° W
meteogram
    Temperature Precipitation Pressure Wind Humidity Clouds Fog
 06:57     17:46 Today
14:00 0.2 mm 998.0 mb 19 mph 89% 100%
15:00   997.5 mb 19 mph 90% 100%
16:00 0.3 mm 997.2 mb 19 mph 87% 100%
17:00 0.3 mm 996.1 mb 17 mph 90% 100%
18:00 0.3 mm 995.5 mb 20 mph 93% 100%
19:00 0.2 mm 995.1 mb 20 mph 93% 100%
20:00 0.3 mm 994.4 mb 19 mph 94% 100%
21:00 0.4 mm 993.3 mb 21 mph 94% 100%
22:00 0.6 mm 992.5 mb 21 mph 94% 100%
23:00 0.3 mm 991.3 mb 23 mph 93% 100%
 06:55     17:48 Tomorrow
00:00 0.4 mm 990.0 mb 22 mph 93% 100%
01:00 0.8 mm 988.6 mb 21 mph 93% 100%
02:00 1.2 mm 986.9 mb 22 mph 93% 100%
03:00 1.5 mm 984.5 mb 24 mph 92% 100%
04:00 1.2 mm 982.7 mb 24 mph 91% 100%
05:00 3.5 mm 983.9 mb 21 mph 90% 100%
06:00 1.0 mm 983.9 mb 15 mph 88% 100%
07:00 0.6 mm 984.2 mb 16 mph 86% 100%
08:00 0.6 mm 984.5 mb 17 mph 90% 100%
09:00 0.3 mm 984.3 mb 16 mph 80% 100%
10:00 0.2 mm 984.7 mb 18 mph 74% 100%
11:00 0.4 mm 985.3 mb 19 mph 71% 60%
12:00 0.1 mm 985.4 mb 20 mph 63% 80%
13:00 0.2 mm 985.3 mb 22 mph 61% 52%
14:00 0.2 mm 985.2 mb 25 mph 59% 31%
15:00   985.3 mb 24 mph 57% 67%
16:00   985.6 mb 24 mph 57% 52%
17:00   985.6 mb 23 mph 62% 4%
18:00   986.2 mb 23 mph 60% 9%
19:00   987.0 mb 23 mph 64% 31%
20:00   987.5 mb 22 mph 68% 32%
21:00   987.9 mb 21 mph 70% 23%
22:00   988.6 mb 19 mph 72% 39%
23:00   989.3 mb 18 mph 71% 48%
 06:53     17:50 Sunday 01.03.2020
00:00 0.1 mm 989.5 mb 18 mph 76% 57%
01:00 0.1 mm 990.2 mb 19 mph 79% 66%
02:00 0.1 mm 990.4 mb 19 mph 76% 50%
03:00   990.4 mb 18 mph 78% 42%
04:00 0.1 mm 990.4 mb 17 mph 79% 59%
05:00 0.2 mm 990.4 mb 16 mph 79% 73%
06:00   990.2 mb 15 mph 83% 23%
07:00   990.0 mb 13 mph 84% 14%
08:00   989.8 mb 12 mph 81% 15%
09:00   989.0 mb 10 mph 80% 84%
10:00 0.1 mm 988.1 mb 11 mph 74% 100%
11:00 0.3 mm 987.0 mb 8 mph 75% 100%
12:00 0.8 mm 986.1 mb 11 mph 86% 100%
13:00 1.2 mm 985.0 mb 5 mph 93% 100%
14:00 0.9 mm 983.8 mb 4 mph 93% 100%
15:00 0.4 mm 983.6 mb 9 mph 88% 100%
16:00 0.2 mm 984.0 mb 10 mph 88% 100%
17:00 0.1 mm 984.5 mb 12 mph 88% 100%
18:00   985.3 mb 13 mph 83% 98%
19:00   986.4 mb 13 mph 78% 50%
20:00   987.1 mb 11 mph 79% 3%
21:00   987.9 mb 11 mph 80% 20%
22:00   988.5 mb 11 mph 84% 18%
23:00   989.1 mb 11 mph 85% 34%
 06:51     17:51 Monday 02.03.2020
00:00   989.3 mb 11 mph 83% 46%
01:00   989.6 mb 10 mph 83% 55%
02:00   989.9 mb 9 mph 86% 41%
03:00   990.0 mb 9 mph 87% 41%
04:00   990.0 mb 9 mph 89% 33%
05:00   990.4 mb 9 mph 91% 31%
06:00   990.9 mb 8 mph 92% 23%
12:00 0.1 mm 995.3 mb 15 mph 61% 41%
18:00 0.1 mm 998.4 mb 12 mph 69% 2%
 06:48     17:53 Tuesday 03.03.2020
00:00 0.1 mm 1001.5 mb 10 mph 83% 23%
06:00   1003.0 mb 10 mph 81% 10%
12:00 0.1 mm 1004.0 mb 11 mph 74% 97%
18:00 1.0 mm 1003.3 mb 4 mph 88% 99%
 06:46     17:55 Wednesday 04.03.2020
00:00 0.7 mm 1004.2 mb 2 mph 96% 98%
06:00   1004.9 mb 2 mph 99% 100%
12:00   1005.9 mb 5 mph 75% 79%
18:00 0.2 mm 1006.3 mb 6 mph 81% 17%
 06:44     17:57 Thursday 05.03.2020
00:00   1009.1 mb 7 mph 90% 2%
06:00   1010.7 mb 8 mph 91% 1%
12:00 0.1 mm 1011.5 mb 16 mph 60% 38%
18:00   1010.1 mb 10 mph 78% 96%
 06:42     17:58 Friday 06.03.2020
00:00 0.1 mm 1008.8 mb 10 mph 91% 36%
06:00   1005.7 mb 10 mph 93% 35%
12:00 0.1 mm 1002.5 mb 19 mph 70% 99%
18:00 2.2 mm 999.4 mb 15 mph 90% 66%
 06:40     18:00 Saturday 07.03.2020
00:00 0.5 mm 995.6 mb 13 mph 93% 100%
06:00 2.2 mm 985.2 mb 23 mph 90% 100%
12:00 8.1 mm 977.7 mb 20 mph 86% 60%
18:00 2.3 mm 973.8 mb 14 mph 86% 90%
 06:37     18:02 Sunday 08.03.2020
00:00 0.1 mm 974.9 mb 10 mph 92% 41%
06:00 0.2 mm 980.7 mb 19 mph 80% 56%
12:00 1.2 mm 986.4 mb 15 mph 84% 100%
18:00 0.3 mm 993.3 mb 19 mph 68% 30%